createdAt,value
2022-10-17T00:00:37.160Z,100
2022-10-17T00:01:37.042Z,100
2022-10-17T00:02:37.048Z,100
2022-10-17T00:03:37.963Z,100
2022-10-17T00:04:37.018Z,100
2022-10-17T00:05:44.467Z,100
2022-10-17T00:06:41.147Z,100
2022-10-17T00:07:41.138Z,100
2022-10-17T00:08:41.920Z,100
2022-10-17T00:09:43.747Z,100
2022-10-17T00:10:41.942Z,100
2022-10-17T00:11:41.173Z,100
2022-10-17T00:12:41.252Z,100
2022-10-17T00:13:41.245Z,100
2022-10-17T00:14:41.302Z,100
2022-10-17T00:15:43.905Z,100
2022-10-17T00:16:41.500Z,100
2022-10-17T00:17:41.195Z,100
2022-10-17T00:18:41.489Z,100
2022-10-17T00:19:41.471Z,100
2022-10-17T00:20:41.262Z,100
2022-10-17T00:21:41.514Z,100
2022-10-17T00:22:41.569Z,100
2022-10-17T00:23:41.374Z,100
2022-10-17T00:24:41.399Z,100
2022-10-17T00:25:41.325Z,100
2022-10-17T00:26:41.397Z,100
2022-10-17T00:27:46.446Z,100
2022-10-17T00:28:45.605Z,100
2022-10-17T00:29:43.108Z,100
2022-10-17T00:30:43.131Z,100
2022-10-17T00:31:43.176Z,100
2022-10-17T00:32:43.169Z,100
2022-10-17T00:33:43.393Z,100
2022-10-17T00:34:43.245Z,100
2022-10-17T00:35:43.230Z,100
2022-10-17T00:36:43.212Z,100
2022-10-17T00:37:43.216Z,100
2022-10-17T00:38:44.448Z,100
2022-10-17T00:39:43.282Z,100
2022-10-17T00:40:43.280Z,100
2022-10-17T00:41:43.258Z,100
2022-10-17T00:42:43.509Z,100
2022-10-17T00:43:54.719Z,100
2022-10-17T00:44:55.064Z,100
2022-10-17T00:45:46.716Z,100
2022-10-17T00:46:46.750Z,100
2022-10-17T00:47:50.174Z,100
2022-10-17T00:48:48.105Z,100
2022-10-17T00:49:47.462Z,100
2022-10-17T00:50:49.152Z,100
2022-10-17T00:51:50.507Z,100
2022-10-17T00:52:48.719Z,100
2022-10-17T00:53:47.541Z,100
2022-10-17T00:54:53.470Z,100
2022-10-17T00:55:52.689Z,100
2022-10-17T00:56:51.066Z,100
2022-10-17T00:57:50.598Z,100
2022-10-17T00:58:50.296Z,100
2022-10-17T00:59:54.932Z,100
2022-10-17T01:00:51.617Z,100
2022-10-17T01:01:56.537Z,100
2022-10-17T01:02:53.191Z,100
2022-10-17T01:03:53.177Z,100
2022-10-17T01:04:53.893Z,100
2022-10-17T01:05:53.216Z,100
2022-10-17T01:06:53.268Z,100
2022-10-17T01:07:53.774Z,100
2022-10-17T01:08:53.293Z,100
2022-10-17T01:09:53.258Z,100
2022-10-17T01:11:03.054Z,100
2022-10-17T01:22:23.080Z,100
2022-10-17T01:31:47.278Z,100
2022-10-17T01:32:49.559Z,100
2022-10-17T01:40:10.129Z,100
2022-10-17T01:41:14.231Z,100
2022-10-17T01:42:13.706Z,100
2022-10-17T01:43:18.158Z,100
2022-10-17T01:46:22.758Z,100
2022-10-17T01:47:21.406Z,100
2022-10-17T01:48:23.807Z,100
2022-10-17T01:49:24.575Z,100
2022-10-17T01:50:25.007Z,100
2022-10-17T01:51:26.355Z,100
2022-10-17T01:52:33.538Z,100
2022-10-17T01:53:31.327Z,100
2022-10-17T01:54:32.199Z,100
2022-10-17T01:55:32.710Z,100
2022-10-17T01:56:31.425Z,100
2022-10-17T01:57:31.935Z,100
2022-10-17T01:58:31.239Z,100
2022-10-17T01:59:33.991Z,100
2022-10-17T02:00:31.671Z,100
2022-10-17T02:01:31.101Z,100
2022-10-17T02:02:31.016Z,100
2022-10-17T02:03:31.244Z,100
2022-10-17T02:04:30.762Z,100
2022-10-17T02:05:32.351Z,100
2022-10-17T02:06:34.063Z,100
2022-10-17T02:07:30.926Z,100
2022-10-17T02:09:32.881Z,100
2022-10-17T02:11:36.142Z,100
2022-10-17T02:21:01.866Z,100
2022-10-17T02:23:11.114Z,100
2022-10-17T02:24:12.349Z,100
2022-10-17T02:25:14.514Z,100
2022-10-17T02:26:10.608Z,100
2022-10-17T02:29:19.142Z,100
2022-10-17T02:31:23.997Z,100
2022-10-17T02:34:29.620Z,100
2022-10-17T02:35:29.374Z,100
2022-10-17T02:36:30.455Z,100
2022-10-17T02:37:28.741Z,100
2022-10-17T02:38:28.809Z,100
2022-10-17T02:39:28.309Z,100
2022-10-17T02:40:29.299Z,100
2022-10-17T02:41:26.872Z,100
2022-10-17T02:42:28.366Z,100
2022-10-17T02:43:28.025Z,100
2022-10-17T02:44:28.044Z,100
2022-10-17T02:45:27.818Z,100
2022-10-17T02:46:27.885Z,100
2022-10-17T02:47:35.672Z,100
2022-10-17T02:48:35.451Z,100
2022-10-17T02:49:36.100Z,100
2022-10-17T02:54:47.751Z,100
2022-10-17T02:55:48.120Z,100
2022-10-17T02:56:50.562Z,100
2022-10-17T02:57:54.374Z,100
2022-10-17T02:58:54.441Z,100
2022-10-17T02:59:50.887Z,100
2022-10-17T03:00:51.423Z,100
2022-10-17T03:01:50.677Z,100
2022-10-17T03:02:51.363Z,100
2022-10-17T03:03:50.929Z,100
2022-10-17T03:04:50.897Z,100
2022-10-17T03:05:50.719Z,100
2022-10-17T03:06:50.744Z,100
2022-10-17T03:07:51.220Z,100
2022-10-17T03:08:50.725Z,100
2022-10-17T03:09:50.797Z,100
2022-10-17T03:10:51.153Z,100
2022-10-17T03:11:50.811Z,100
2022-10-17T03:12:50.809Z,100
2022-10-17T03:13:50.847Z,100
2022-10-17T03:14:50.802Z,100
2022-10-17T03:15:50.830Z,100
2022-10-17T03:16:51.146Z,100
2022-10-17T03:17:50.894Z,100
2022-10-17T03:18:50.909Z,100
2022-10-17T03:19:50.960Z,100
2022-10-17T03:20:50.908Z,100
2022-10-17T03:21:50.946Z,100
2022-10-17T03:22:50.971Z,100
2022-10-17T03:23:50.932Z,100
2022-10-17T03:24:50.964Z,100
2022-10-17T03:25:50.983Z,100
2022-10-17T03:26:50.980Z,100
2022-10-17T03:27:51.038Z,100
2022-10-17T03:28:53.688Z,100
2022-10-17T03:29:51.291Z,100
2022-10-17T03:30:51.053Z,100
2022-10-17T03:31:51.066Z,100
2022-10-17T03:32:51.091Z,100
2022-10-17T03:33:51.112Z,100
2022-10-17T03:34:51.113Z,100
2022-10-17T03:35:51.117Z,100
2022-10-17T03:36:51.163Z,100
2022-10-17T03:37:51.165Z,100
2022-10-17T03:38:54.506Z,100
2022-10-17T03:39:51.187Z,100
2022-10-17T03:40:56.948Z,100
2022-10-17T03:41:53.165Z,100
2022-10-17T03:42:53.381Z,100
2022-10-17T03:43:53.683Z,100
2022-10-17T03:44:53.168Z,100
2022-10-17T03:45:53.190Z,100
2022-10-17T03:46:53.225Z,100
2022-10-17T03:47:53.346Z,100
2022-10-17T03:48:53.483Z,100
2022-10-17T03:49:53.247Z,100
2022-10-17T03:50:57.970Z,100
2022-10-17T03:51:54.149Z,100
2022-10-17T03:52:54.242Z,100
2022-10-17T03:53:54.196Z,100
2022-10-17T03:54:54.205Z,100
2022-10-17T03:55:54.251Z,100
2022-10-17T03:56:54.536Z,100
2022-10-17T03:57:54.256Z,100
2022-10-17T03:58:54.746Z,100
2022-10-17T03:59:54.262Z,100
2022-10-17T04:00:54.334Z,100
2022-10-17T04:01:54.272Z,100
2022-10-17T04:02:54.327Z,100
2022-10-17T04:03:55.569Z,100
2022-10-17T04:04:54.338Z,100
2022-10-17T04:05:54.351Z,100
2022-10-17T04:06:54.369Z,100
2022-10-17T04:07:54.405Z,100
2022-10-17T04:08:54.423Z,100
2022-10-17T04:09:54.459Z,100
2022-10-17T04:10:58.301Z,100
2022-10-17T04:11:54.495Z,100
2022-10-17T04:12:54.506Z,100
2022-10-17T04:13:55.472Z,100
2022-10-17T04:14:54.574Z,100
2022-10-17T04:15:58.083Z,100
2022-10-17T04:16:54.615Z,100
2022-10-17T04:17:54.684Z,100
2022-10-17T04:18:56.136Z,100
2022-10-17T04:19:54.682Z,100
2022-10-17T04:20:54.677Z,100
2022-10-17T04:21:54.654Z,100
2022-10-17T04:22:54.652Z,100
2022-10-17T04:23:55.392Z,100
2022-10-17T04:24:54.723Z,100
2022-10-17T04:25:58.126Z,100
2022-10-17T04:26:54.725Z,100
2022-10-17T04:27:54.731Z,100
2022-10-17T04:28:54.756Z,100
2022-10-17T04:29:54.790Z,100
2022-10-17T04:30:58.947Z,100
2022-10-17T04:31:55.176Z,100
2022-10-17T04:32:55.182Z,100
2022-10-17T04:33:55.232Z,100
2022-10-17T04:34:55.203Z,100
2022-10-17T04:36:01.998Z,100
2022-10-17T04:36:58.176Z,100
2022-10-17T04:37:58.408Z,100
2022-10-17T04:39:00.131Z,100
2022-10-17T04:39:58.270Z,100
2022-10-17T04:40:58.669Z,100
2022-10-17T04:41:58.493Z,100
2022-10-17T04:42:58.301Z,100
2022-10-17T04:43:58.779Z,100
2022-10-17T04:44:58.340Z,100
2022-10-17T04:45:59.021Z,100
2022-10-17T04:46:59.901Z,100
2022-10-17T04:47:58.352Z,100
2022-10-17T04:48:58.408Z,100
2022-10-17T04:49:58.424Z,100
2022-10-17T04:51:02.966Z,100
2022-10-17T04:51:59.172Z,100
2022-10-17T04:52:59.415Z,100
2022-10-17T04:53:59.196Z,100
2022-10-17T04:54:59.204Z,100
2022-10-17T04:55:59.273Z,100
2022-10-17T04:56:59.270Z,100
2022-10-17T04:57:59.251Z,100
2022-10-17T04:58:59.284Z,100
2022-10-17T04:59:59.335Z,100
2022-10-17T05:00:59.376Z,100
2022-10-17T05:01:59.338Z,100
2022-10-17T05:02:59.381Z,100
2022-10-17T05:03:59.354Z,100
2022-10-17T05:04:59.376Z,100
2022-10-17T05:06:02.741Z,100
2022-10-17T05:06:59.452Z,100
2022-10-17T05:07:59.445Z,100
2022-10-17T05:08:59.438Z,100
2022-10-17T05:09:59.460Z,100
2022-10-17T05:11:59.538Z,100
2022-10-17T05:12:59.524Z,100
2022-10-17T05:14:00.996Z,100
2022-10-17T05:14:59.564Z,100
2022-10-17T05:16:02.318Z,100
2022-10-17T05:16:59.642Z,100
2022-10-17T05:17:59.591Z,100
2022-10-17T05:18:59.594Z,100
2022-10-17T05:19:59.635Z,100
2022-10-17T05:20:59.622Z,100
2022-10-17T05:21:59.723Z,100
2022-10-17T05:23:00.326Z,100
2022-10-17T05:23:59.810Z,100
2022-10-17T05:24:59.732Z,100
2022-10-17T05:25:59.768Z,100
2022-10-17T05:26:59.837Z,100
2022-10-17T05:27:59.745Z,100
2022-10-17T05:29:00.455Z,100
2022-10-17T05:29:59.761Z,100
2022-10-17T05:31:05.818Z,100
2022-10-17T05:33:02.486Z,100
2022-10-17T05:34:02.968Z,100
2022-10-17T05:35:02.109Z,100
2022-10-17T05:36:02.094Z,100
2022-10-17T05:37:02.116Z,100
2022-10-17T05:38:02.101Z,100
2022-10-17T05:39:02.120Z,100
2022-10-17T05:40:02.501Z,100
2022-10-17T05:41:03.794Z,100
2022-10-17T05:42:02.192Z,100
2022-10-17T05:43:02.228Z,100
2022-10-17T05:44:04.754Z,100
2022-10-17T05:45:02.272Z,100
2022-10-17T05:46:03.475Z,100
2022-10-17T05:47:02.236Z,100
2022-10-17T05:48:02.509Z,100
2022-10-17T05:49:03.592Z,100
2022-10-17T05:50:04.604Z,100
2022-10-17T05:51:05.963Z,100
2022-10-17T05:52:04.643Z,100
2022-10-17T05:53:04.360Z,100
2022-10-17T05:54:06.944Z,100
2022-10-17T05:55:05.086Z,100
2022-10-17T05:56:05.802Z,100
2022-10-17T05:57:04.405Z,100
2022-10-17T05:58:04.263Z,100
2022-10-17T05:59:04.669Z,100
2022-10-17T06:00:05.008Z,100
2022-10-17T06:01:07.123Z,100
2022-10-17T06:02:05.891Z,100
2022-10-17T06:03:05.736Z,100
2022-10-17T06:04:05.761Z,100
2022-10-17T06:05:06.043Z,100
2022-10-17T06:06:06.936Z,100
2022-10-17T06:07:05.761Z,100
2022-10-17T06:08:06.097Z,100
2022-10-17T06:09:06.260Z,100
2022-10-17T06:10:06.065Z,100
2022-10-17T06:11:09.250Z,100
2022-10-17T06:12:07.437Z,100
2022-10-17T06:13:06.907Z,100
2022-10-17T06:14:06.850Z,100
2022-10-17T06:15:07.364Z,100
2022-10-17T06:16:07.118Z,100
2022-10-17T06:17:09.945Z,100
2022-10-17T06:18:08.723Z,100
2022-10-17T06:19:08.537Z,100
2022-10-17T06:20:09.013Z,100
2022-10-17T06:21:09.753Z,100
2022-10-17T06:22:08.569Z,100
2022-10-17T06:23:08.573Z,100
2022-10-17T06:24:08.592Z,100
2022-10-17T06:25:09.180Z,100
2022-10-17T06:26:08.880Z,100
2022-10-17T06:27:11.768Z,100
2022-10-17T06:28:08.875Z,100
2022-10-17T06:29:09.166Z,100
2022-10-17T06:30:09.278Z,100
2022-10-17T06:31:09.902Z,100
2022-10-17T06:32:11.257Z,100
2022-10-17T06:33:10.669Z,100
2022-10-17T06:34:10.717Z,100
2022-10-17T06:35:10.658Z,100
2022-10-17T06:36:12.373Z,100
2022-10-17T06:37:10.714Z,100
2022-10-17T06:38:10.762Z,100
2022-10-17T06:39:10.913Z,100
2022-10-17T06:40:11.334Z,100
2022-10-17T06:41:12.656Z,100
2022-10-17T06:42:10.779Z,100
2022-10-17T06:43:10.779Z,100
2022-10-17T06:44:11.636Z,100
2022-10-17T06:45:11.077Z,100
2022-10-17T06:46:10.853Z,100
2022-10-17T06:47:10.835Z,100
2022-10-17T06:48:10.889Z,100
2022-10-17T06:49:11.118Z,100
2022-10-17T06:50:11.006Z,100
2022-10-17T06:51:11.220Z,100
2022-10-17T06:52:10.918Z,100
2022-10-17T06:53:10.954Z,100
2022-10-17T06:54:10.983Z,100
2022-10-17T06:55:11.036Z,100
2022-10-17T06:56:11.014Z,100
2022-10-17T06:57:11.087Z,100
2022-10-17T06:58:11.235Z,100
2022-10-17T06:59:11.442Z,100
2022-10-17T07:00:11.808Z,100
2022-10-17T07:01:12.436Z,100
2022-10-17T07:02:11.545Z,100
2022-10-17T07:03:11.153Z,100
2022-10-17T07:04:11.442Z,100
2022-10-17T07:05:11.647Z,100
2022-10-17T07:06:12.739Z,100
2022-10-17T07:07:11.274Z,100
2022-10-17T07:08:11.933Z,100
2022-10-17T07:09:11.280Z,100
2022-10-17T07:10:12.017Z,100
2022-10-17T07:11:12.614Z,100
2022-10-17T07:12:11.374Z,100
2022-10-17T07:13:11.514Z,100
2022-10-17T07:14:11.620Z,100
2022-10-17T07:15:11.571Z,100
2022-10-17T07:16:11.393Z,100
2022-10-17T07:17:11.593Z,100
2022-10-17T07:18:11.427Z,100
2022-10-17T07:19:11.398Z,100
2022-10-17T07:20:11.673Z,100
2022-10-17T07:21:12.002Z,100
2022-10-17T07:22:11.922Z,100
2022-10-17T07:23:11.491Z,100
2022-10-17T07:24:11.481Z,100
2022-10-17T07:25:11.703Z,100
2022-10-17T07:26:13.128Z,100
2022-10-17T07:27:12.349Z,100
2022-10-17T07:28:11.532Z,100
2022-10-17T07:29:11.603Z,100
2022-10-17T07:30:11.922Z,100
2022-10-17T07:31:18.190Z,100
2022-10-17T07:32:14.805Z,100
2022-10-17T07:33:14.810Z,100
2022-10-17T07:34:14.657Z,100
2022-10-17T07:35:14.905Z,100
2022-10-17T07:36:15.666Z,100
2022-10-17T07:37:14.886Z,100
2022-10-17T07:38:14.898Z,100
2022-10-17T07:39:15.223Z,100
2022-10-17T07:40:14.674Z,100
2022-10-17T07:41:19.170Z,100
2022-10-17T07:42:17.900Z,100
2022-10-17T07:43:17.822Z,100
2022-10-17T07:44:18.403Z,100
2022-10-17T07:45:18.413Z,100
2022-10-17T07:46:17.942Z,100
2022-10-17T07:47:18.031Z,100
2022-10-17T07:48:18.126Z,100
2022-10-17T07:49:18.102Z,100
2022-10-17T07:50:19.815Z,100
2022-10-17T07:51:17.993Z,100
2022-10-17T07:52:18.330Z,100
2022-10-17T07:53:18.057Z,100
2022-10-17T07:54:17.994Z,100
2022-10-17T07:55:18.057Z,100
2022-10-17T07:56:18.096Z,100
2022-10-17T07:57:18.323Z,100
2022-10-17T07:58:18.277Z,100
2022-10-17T07:59:18.477Z,100
2022-10-17T08:00:18.592Z,100
2022-10-17T08:01:18.677Z,100
2022-10-17T08:02:23.291Z,100
2022-10-17T08:03:19.490Z,100
2022-10-17T08:04:19.726Z,100
2022-10-17T08:05:19.826Z,100
2022-10-17T08:06:19.594Z,100
2022-10-17T08:07:24.199Z,100
2022-10-17T08:08:23.280Z,100
2022-10-17T08:09:23.538Z,100
2022-10-17T08:10:23.673Z,100
2022-10-17T08:11:23.521Z,100
2022-10-17T08:12:23.339Z,100
2022-10-17T08:13:23.335Z,100
2022-10-17T08:14:23.401Z,100
2022-10-17T08:15:27.924Z,100
2022-10-17T08:16:27.135Z,100
2022-10-17T08:17:27.274Z,100
2022-10-17T08:18:27.213Z,100
2022-10-17T08:19:27.185Z,100
2022-10-17T08:20:27.228Z,100
2022-10-17T08:21:27.291Z,100
2022-10-17T08:22:27.516Z,100
2022-10-17T08:23:27.731Z,100
2022-10-17T08:24:27.295Z,100
2022-10-17T08:25:28.580Z,100
2022-10-17T08:26:27.963Z,99.77
2022-10-17T08:27:27.373Z,99.27
2022-10-17T08:28:27.641Z,99.15
2022-10-17T08:29:27.386Z,100
2022-10-17T08:30:27.369Z,98.98
2022-10-17T08:31:27.428Z,99.86
2022-10-17T08:32:28.393Z,100
2022-10-17T08:33:27.416Z,98.91
2022-10-17T08:34:27.466Z,98.45
2022-10-17T08:35:27.464Z,100
2022-10-17T08:36:27.664Z,98.88
2022-10-17T08:37:27.847Z,100
2022-10-17T08:38:34.688Z,98.93
2022-10-17T08:39:31.835Z,98.39
2022-10-17T08:40:31.887Z,99.54
2022-10-17T08:46:45.258Z,96.95
2022-10-17T08:47:45.250Z,96.37
2022-10-17T08:48:46.539Z,96.17
2022-10-17T08:49:51.510Z,96.56
2022-10-17T08:51:51.766Z,96.71
2022-10-17T08:52:50.956Z,96.86
2022-10-17T08:53:51.885Z,97.61
2022-10-17T08:54:48.828Z,98.83
2022-10-17T08:55:52.061Z,96.81
2022-10-17T08:57:49.431Z,94.92
2022-10-17T08:58:49.608Z,95.42
2022-10-17T08:59:51.101Z,98.16
2022-10-17T09:07:20.919Z,95.68
2022-10-17T09:10:21.052Z,94.82
2022-10-17T09:14:32.057Z,92.55
2022-10-17T09:18:36.229Z,94.13
2022-10-17T09:19:36.786Z,92.66
2022-10-17T09:20:37.315Z,93.49
2022-10-17T09:22:41.279Z,92.8
2022-10-17T09:25:46.760Z,95.25
2022-10-17T09:26:44.693Z,92.83
2022-10-17T09:27:45.814Z,92.51
2022-10-17T09:28:43.731Z,93.05
2022-10-17T09:29:46.036Z,95.14
2022-10-17T09:30:46.597Z,93.72
2022-10-17T09:32:44.673Z,93.24
2022-10-17T09:33:54.691Z,95.27
2022-10-17T09:34:46.594Z,91.91
2022-10-17T09:35:46.795Z,91.98
2022-10-17T09:36:46.436Z,93.22
2022-10-17T09:37:51.386Z,92.98
2022-10-17T09:38:50.320Z,92.94
2022-10-17T09:39:47.813Z,93.77
2022-10-17T09:40:56.947Z,93.82
2022-10-17T09:41:53.407Z,94.43
2022-10-17T09:42:53.403Z,92.44
2022-10-17T09:43:52.959Z,92.74
2022-10-17T09:50:03.177Z,90.4
2022-10-17T09:51:14.670Z,91
2022-10-17T09:52:04.537Z,90.36
2022-10-17T09:54:11.271Z,89.1
2022-10-17T09:56:13.343Z,89.85
2022-10-17T09:57:12.424Z,90.03
2022-10-17T09:58:11.623Z,89.1
2022-10-17T09:59:13.919Z,88.25
2022-10-17T10:02:22.608Z,86.88
2022-10-17T10:03:20.457Z,85.74
2022-10-17T10:04:18.813Z,85.92
2022-10-17T10:05:19.448Z,85.19
2022-10-17T10:06:20.374Z,84.37
2022-10-17T10:07:19.495Z,84.94
2022-10-17T10:08:19.629Z,82.9
2022-10-17T10:09:25.702Z,82.89
2022-10-17T10:10:27.841Z,83.29
2022-10-17T10:11:26.054Z,84.04
2022-10-17T10:12:25.996Z,84.29
2022-10-17T10:13:25.986Z,84.82
2022-10-17T10:16:33.353Z,87.26
2022-10-17T10:18:36.377Z,87.47
2022-10-17T10:19:37.410Z,87.12
2022-10-17T10:20:37.201Z,87.24
2022-10-17T10:22:40.765Z,87.74
2022-10-17T10:23:41.609Z,86.06
2022-10-17T10:24:40.560Z,86.21
2022-10-17T10:25:52.184Z,86.95
2022-10-17T10:26:45.494Z,87.02
2022-10-17T10:27:45.321Z,86.39
2022-10-17T10:28:50.945Z,86.61
2022-10-17T10:29:51.398Z,85.93
2022-10-17T10:30:51.158Z,85.49
2022-10-17T10:31:48.598Z,86.88
2022-10-17T10:32:48.855Z,87.7
2022-10-17T10:33:50.258Z,86.81
2022-10-17T10:37:56.575Z,85.36
2022-10-17T10:38:58.334Z,85.2
2022-10-17T10:39:59.522Z,85.03
2022-10-17T10:40:57.426Z,83.95
2022-10-17T10:41:55.914Z,86.07
2022-10-17T10:43:01.286Z,83.42
2022-10-17T10:43:56.351Z,84.76
2022-10-17T10:45:02.357Z,84.59
2022-10-17T10:45:59.170Z,84.42
2022-10-17T10:48:06.160Z,84.53
2022-10-17T10:49:02.670Z,83.35
2022-10-17T10:51:15.052Z,83.71
2022-10-17T10:52:15.773Z,83.66
2022-10-17T10:54:19.898Z,82.73
2022-10-17T10:55:23.075Z,82.3
2022-10-17T10:56:31.480Z,81.32
2022-10-17T10:57:28.088Z,80.73
2022-10-17T10:58:33.574Z,80.09
2022-10-17T11:00:31.926Z,80.04
2022-10-17T11:06:39.886Z,79.9
2022-10-17T11:08:45.776Z,78.44
2022-10-17T11:11:00.680Z,78.02
2022-10-17T11:11:50.344Z,78.78
2022-10-17T11:12:50.970Z,78.45
2022-10-17T11:15:58.930Z,78.75
2022-10-17T11:18:00.505Z,79.85
2022-10-17T11:20:10.666Z,77.62
2022-10-17T11:21:13.258Z,78.84
2022-10-17T11:23:15.667Z,77.68
2022-10-17T11:24:16.305Z,77.26
2022-10-17T11:25:17.636Z,76.93
2022-10-17T11:26:23.296Z,76.7
2022-10-17T11:27:15.082Z,77.25
2022-10-17T11:28:16.843Z,77.43
2022-10-17T11:29:15.822Z,77.79
2022-10-17T11:30:18.042Z,78.28
2022-10-17T11:31:15.663Z,78.18
2022-10-17T11:32:17.051Z,79.3
2022-10-17T11:33:22.042Z,78.03
2022-10-17T11:34:22.852Z,79.13
2022-10-17T11:35:21.090Z,77.71
2022-10-17T11:36:21.241Z,78.48
2022-10-17T11:37:22.889Z,79.13
2022-10-17T11:38:26.993Z,79.29
2022-10-17T11:39:29.636Z,78.1
2022-10-17T11:40:34.537Z,77.98
2022-10-17T11:41:42.856Z,77.16
2022-10-17T11:42:39.076Z,77.64
2022-10-17T11:43:40.530Z,78.5
2022-10-17T11:44:38.133Z,78.03
2022-10-17T11:45:41.139Z,79.24
2022-10-17T11:46:40.145Z,79.72
2022-10-17T11:47:43.574Z,78.05
2022-10-17T11:48:50.779Z,77.78
2022-10-17T11:49:48.567Z,77.66
2022-10-17T11:54:03.119Z,75.58
2022-10-17T11:54:56.444Z,75.72
2022-10-17T11:55:58.067Z,75.33
2022-10-17T12:00:07.048Z,76.62
2022-10-17T12:01:16.145Z,77.21
2022-10-17T12:02:22.127Z,77
2022-10-17T12:09:27.684Z,77
2022-10-17T12:12:32.588Z,76.16
2022-10-17T12:15:35.500Z,76.18
2022-10-17T12:16:39.092Z,76.37
2022-10-17T12:17:37.702Z,77.22
2022-10-17T12:18:36.939Z,77.4
2022-10-17T12:19:37.040Z,76.92
2022-10-17T12:20:37.684Z,78.27
2022-10-17T12:22:46.540Z,78.77
2022-10-17T12:23:51.533Z,79.22
2022-10-17T12:25:52.158Z,79.27
2022-10-17T12:26:52.255Z,79.47
2022-10-17T12:27:50.855Z,80.03
2022-10-17T12:28:50.472Z,78.92
2022-10-17T12:29:50.591Z,79.65
2022-10-17T12:30:58.055Z,78.72
2022-10-17T12:31:54.261Z,79.25
2022-10-17T12:34:00.011Z,75.39
2022-10-17T12:34:59.186Z,75.67
2022-10-17T12:37:02.751Z,76.49
2022-10-17T12:41:07.293Z,76.27
2022-10-17T12:46:12.874Z,75.73
2022-10-17T12:48:12.515Z,76.23
2022-10-17T12:53:24.729Z,76.13
2022-10-17T12:54:23.194Z,74.34
2022-10-17T12:55:24.648Z,73.54
2022-10-17T12:58:30.852Z,74.48
2022-10-17T12:59:29.636Z,74.33
2022-10-17T13:01:34.163Z,75.66
2022-10-17T13:02:33.245Z,76.16
2022-10-17T13:03:33.349Z,76.47
2022-10-17T13:04:36.053Z,75.17
2022-10-17T13:05:36.957Z,75.1
2022-10-17T13:06:35.047Z,75.69
2022-10-17T13:07:34.173Z,75.1
2022-10-17T13:08:34.556Z,74.79
2022-10-17T13:09:36.069Z,75
2022-10-17T13:10:40.647Z,75.2
2022-10-17T13:11:35.757Z,76.18
2022-10-17T13:12:41.229Z,76.22
2022-10-17T13:13:41.731Z,75.03
2022-10-17T13:14:39.002Z,75.19
2022-10-17T13:15:37.942Z,75.18
2022-10-17T13:16:39.199Z,75.1
2022-10-17T13:17:40.646Z,73.52
2022-10-17T13:18:39.376Z,73.52
2022-10-17T13:19:43.851Z,75.71
2022-10-17T13:20:40.074Z,74.53
2022-10-17T13:21:49.086Z,74.28
2022-10-17T13:22:44.631Z,75.15
2022-10-17T13:23:40.914Z,73.85
2022-10-17T13:24:40.858Z,73.12
2022-10-17T13:25:40.889Z,73.01
2022-10-17T13:26:44.854Z,73.13
2022-10-17T13:27:41.192Z,73.48
2022-10-17T13:28:41.817Z,73.37
2022-10-17T13:29:44.318Z,74.04
2022-10-17T13:30:45.989Z,74.38
2022-10-17T13:31:43.491Z,74.13
2022-10-17T13:32:42.226Z,74.99
2022-10-17T13:33:42.220Z,75.15
2022-10-17T13:34:42.475Z,74.85
2022-10-17T13:35:59.335Z,75.3
2022-10-17T13:36:48.876Z,74.97
2022-10-17T13:37:53.018Z,75.34
2022-10-17T13:38:52.757Z,75.66
2022-10-17T13:39:55.784Z,75.68
2022-10-17T13:41:01.676Z,76.21
2022-10-17T13:41:58.147Z,76.21
2022-10-17T13:42:58.539Z,75.8
2022-10-17T13:43:57.781Z,75.53
2022-10-17T13:44:58.457Z,75.67
2022-10-17T13:46:13.646Z,75.82
2022-10-17T13:47:01.315Z,75.67
2022-10-17T13:51:11.177Z,77.43
2022-10-17T13:52:17.070Z,77.79
2022-10-17T13:55:17.449Z,79.26
2022-10-17T13:57:23.344Z,79.07
2022-10-17T13:58:19.998Z,79.08
2022-10-17T13:59:23.738Z,79.94
2022-10-17T14:00:21.391Z,81.25
2022-10-17T14:01:23.621Z,82.4
2022-10-17T14:02:22.294Z,81.4
2022-10-17T14:03:21.077Z,80.49
2022-10-17T14:04:20.778Z,81.04
2022-10-17T14:05:21.298Z,81.46
2022-10-17T14:06:27.781Z,81.83
2022-10-17T14:07:34.121Z,82.94
2022-10-17T14:08:25.152Z,83.16
2022-10-17T14:09:25.724Z,82.38
2022-10-17T14:10:31.674Z,83.31
2022-10-17T14:11:35.771Z,82.6
2022-10-17T14:12:33.234Z,81.71
2022-10-17T14:13:32.504Z,81.74
2022-10-17T14:14:51.620Z,82.33
2022-10-17T14:15:35.713Z,82.5
2022-10-17T14:16:34.995Z,84.06
2022-10-17T14:17:33.694Z,83.71
2022-10-17T14:18:36.344Z,84.61
2022-10-17T14:19:35.947Z,83.73
2022-10-17T14:21:08.178Z,84.04
2022-10-17T14:21:43.726Z,83.97
2022-10-17T14:22:36.393Z,82.91
2022-10-17T14:23:37.876Z,83.07
2022-10-17T14:24:36.439Z,83.66
2022-10-17T14:25:37.613Z,83.88
2022-10-17T14:28:39.829Z,83.7
2022-10-17T14:29:52.013Z,84.82
2022-10-17T14:31:02.691Z,84.96
2022-10-17T14:31:44.038Z,85.15
2022-10-17T14:32:44.063Z,85.56
2022-10-17T14:33:50.705Z,84.91
2022-10-17T14:34:52.192Z,85.06
2022-10-17T14:36:52.338Z,86.12
2022-10-17T14:37:52.774Z,85.62
2022-10-17T14:38:51.878Z,86.18
2022-10-17T14:39:51.830Z,85.91
2022-10-17T14:41:54.953Z,85.9
2022-10-17T14:42:55.772Z,86.85
2022-10-17T14:43:56.126Z,85.65
2022-10-17T14:44:56.674Z,86.21
2022-10-17T14:45:57.663Z,85.83
2022-10-17T14:46:57.016Z,86.76
2022-10-17T14:47:56.280Z,87.13
2022-10-17T14:48:56.004Z,87.33
2022-10-17T14:56:04.951Z,90.39
2022-10-17T14:59:11.879Z,91.47
2022-10-17T15:00:14.659Z,91.03
2022-10-17T15:01:11.359Z,90.72
2022-10-17T15:02:11.682Z,91.48
2022-10-17T15:03:11.411Z,92.91
2022-10-17T15:04:11.384Z,93.19
2022-10-17T15:05:13.427Z,93.98
2022-10-17T15:06:21.422Z,94.53
2022-10-17T15:07:16.729Z,94.76
2022-10-17T15:08:14.267Z,95.17
2022-10-17T15:09:13.421Z,95.25
2022-10-17T15:10:23.168Z,95.29
2022-10-17T15:11:14.847Z,95.11
2022-10-17T15:12:17.466Z,95.65
2022-10-17T15:13:27.609Z,95.58
2022-10-17T15:14:15.967Z,95.89
2022-10-17T15:15:15.697Z,96.27
2022-10-17T15:16:18.688Z,96.26
2022-10-17T15:17:20.048Z,96.57
2022-10-17T15:18:16.746Z,96.36
2022-10-17T15:19:16.706Z,96.91
2022-10-17T15:20:17.604Z,97.66
2022-10-17T15:21:26.278Z,97.92
2022-10-17T15:22:20.628Z,98.13
2022-10-17T15:23:20.605Z,98.06
2022-10-17T15:24:20.648Z,98.41
2022-10-17T15:25:20.823Z,98.63
2022-10-17T15:26:22.337Z,99.05
2022-10-17T15:27:24.254Z,99.3
2022-10-17T15:28:20.897Z,99.66
2022-10-17T15:29:20.857Z,99
2022-10-17T15:30:22.999Z,98.49
2022-10-17T15:31:23.000Z,99.31
2022-10-17T15:32:20.959Z,100
2022-10-17T15:33:21.024Z,100
2022-10-17T15:34:20.997Z,100
2022-10-17T15:35:21.207Z,100
2022-10-17T15:36:25.515Z,100
2022-10-17T15:37:23.554Z,100
2022-10-17T15:38:22.317Z,100
2022-10-17T15:39:22.238Z,100
2022-10-17T15:40:26.808Z,100
2022-10-17T15:41:24.908Z,100
2022-10-17T15:42:27.592Z,100
2022-10-17T15:43:24.256Z,100
2022-10-17T15:44:24.299Z,100
2022-10-17T15:45:24.511Z,100
2022-10-17T15:46:28.948Z,100
2022-10-17T15:47:29.970Z,100
2022-10-17T15:48:29.755Z,100
2022-10-17T15:49:26.825Z,100
2022-10-17T15:50:26.817Z,100
2022-10-17T15:51:26.805Z,100
2022-10-17T15:52:27.442Z,100
2022-10-17T15:53:26.941Z,100
2022-10-17T15:54:26.872Z,100
2022-10-17T15:55:26.960Z,100
2022-10-17T15:56:32.205Z,100
2022-10-17T15:57:30.316Z,100
2022-10-17T15:58:33.090Z,100
2022-10-17T15:59:33.150Z,100
2022-10-17T16:00:29.917Z,100
2022-10-17T16:01:30.792Z,100
2022-10-17T16:02:29.841Z,100
2022-10-17T16:03:29.896Z,100
2022-10-17T16:04:29.933Z,100
2022-10-17T16:05:29.949Z,100
2022-10-17T16:06:29.980Z,100
2022-10-17T16:07:30.208Z,100
2022-10-17T16:08:29.980Z,100
2022-10-17T16:09:30.009Z,100
2022-10-17T16:10:30.001Z,100
2022-10-17T16:11:35.465Z,100
2022-10-17T16:12:32.182Z,100
2022-10-17T16:13:32.188Z,100
2022-10-17T16:14:32.865Z,100
2022-10-17T16:15:35.226Z,100
2022-10-17T16:16:32.399Z,100